createdAt,value
2017-06-30T00:00:00.883Z,994.6
2017-06-30T00:01:00.861Z,994.58
2017-06-30T00:02:00.842Z,994.57
2017-06-30T00:03:00.822Z,994.57
2017-06-30T00:04:00.804Z,994.6
2017-06-30T00:05:00.782Z,994.58
2017-06-30T00:06:00.770Z,994.56
2017-06-30T00:07:00.739Z,994.57
2017-06-30T00:08:00.721Z,994.57
2017-06-30T00:09:00.700Z,994.6
2017-06-30T00:10:00.681Z,994.58
2017-06-30T00:11:00.662Z,994.55
2017-06-30T00:12:00.695Z,994.54
2017-06-30T00:13:00.620Z,994.56
2017-06-30T00:14:00.600Z,994.59
2017-06-30T00:15:00.583Z,994.6
2017-06-30T00:16:00.564Z,994.58
2017-06-30T00:17:00.539Z,994.6
2017-06-30T00:18:00.519Z,994.65
2017-06-30T00:19:00.498Z,994.64
2017-06-30T00:20:00.479Z,994.65
2017-06-30T00:21:00.459Z,994.64
2017-06-30T00:22:00.439Z,994.68
2017-06-30T00:23:00.421Z,994.68
2017-06-30T00:24:00.400Z,994.69
2017-06-30T00:25:00.383Z,994.72
2017-06-30T00:26:00.358Z,994.71
2017-06-30T00:27:00.337Z,994.77
2017-06-30T00:28:00.316Z,994.76
2017-06-30T00:29:00.296Z,994.78
2017-06-30T00:30:00.275Z,994.77
2017-06-30T00:31:00.256Z,994.83
2017-06-30T00:32:00.236Z,994.77
2017-06-30T00:33:00.215Z,994.79
2017-06-30T00:34:00.194Z,994.76
2017-06-30T00:35:00.174Z,994.76
2017-06-30T00:36:00.153Z,994.78
2017-06-30T00:37:00.134Z,994.75
2017-06-30T00:38:00.113Z,994.75
2017-06-30T00:39:00.094Z,994.76
2017-06-30T00:40:00.072Z,994.76
2017-06-30T00:41:00.052Z,994.78
2017-06-30T00:42:00.032Z,994.76
2017-06-30T00:43:00.009Z,994.78
2017-06-30T00:43:59.991Z,994.75
2017-06-30T00:44:59.970Z,994.78
2017-06-30T00:45:59.951Z,994.73
2017-06-30T00:46:59.930Z,994.81
2017-06-30T00:47:59.909Z,994.83
2017-06-30T00:48:59.889Z,994.82
2017-06-30T00:49:59.868Z,994.82
2017-06-30T00:50:59.849Z,994.77
2017-06-30T00:51:59.828Z,994.78
2017-06-30T00:52:59.859Z,994.81
2017-06-30T00:53:59.788Z,994.78
2017-06-30T00:54:59.771Z,994.75
2017-06-30T00:55:59.750Z,994.76
2017-06-30T00:56:59.725Z,994.74
2017-06-30T00:57:59.706Z,994.79
2017-06-30T00:58:59.685Z,994.77
2017-06-30T00:59:59.667Z,994.79
2017-06-30T01:00:59.644Z,994.76
2017-06-30T01:01:59.624Z,994.78
2017-06-30T01:02:59.604Z,994.78
2017-06-30T01:03:59.583Z,994.76
2017-06-30T01:04:59.561Z,994.78
2017-06-30T01:05:59.543Z,994.8
2017-06-30T01:06:59.521Z,994.77
2017-06-30T01:07:59.500Z,994.81
2017-06-30T01:08:59.483Z,994.81
2017-06-30T01:09:59.462Z,994.81
2017-06-30T01:10:59.440Z,994.82
2017-06-30T01:11:59.423Z,994.76
2017-06-30T01:12:59.398Z,994.76
2017-06-30T01:13:59.387Z,994.71
2017-06-30T01:14:59.358Z,994.68
2017-06-30T01:15:59.338Z,994.65
2017-06-30T01:16:59.318Z,994.67
2017-06-30T01:17:59.296Z,994.66
2017-06-30T01:18:59.277Z,994.72
2017-06-30T01:19:59.255Z,994.7
2017-06-30T01:20:59.236Z,994.72
2017-06-30T01:21:59.216Z,994.73
2017-06-30T01:22:59.195Z,994.73
2017-06-30T01:23:59.175Z,994.75
2017-06-30T01:24:59.152Z,994.74
2017-06-30T01:25:59.132Z,994.75
2017-06-30T01:26:59.113Z,994.78
2017-06-30T01:27:59.092Z,994.76
2017-06-30T01:28:59.071Z,994.75
2017-06-30T01:29:59.050Z,994.78
2017-06-30T01:30:59.033Z,994.8
2017-06-30T01:31:59.009Z,994.74
2017-06-30T01:32:58.990Z,994.76
2017-06-30T01:33:58.970Z,994.71
2017-06-30T01:34:58.947Z,994.75
2017-06-30T01:35:58.926Z,994.74
2017-06-30T01:36:58.907Z,994.79
2017-06-30T01:37:58.886Z,994.77
2017-06-30T01:38:58.866Z,994.77
2017-06-30T01:39:58.845Z,994.83
2017-06-30T01:40:58.826Z,994.81
2017-06-30T01:41:58.804Z,994.75
2017-06-30T01:42:58.784Z,994.8
2017-06-30T01:43:58.762Z,994.76
2017-06-30T01:44:58.742Z,994.78
2017-06-30T01:45:58.721Z,994.78
2017-06-30T01:46:58.702Z,994.79
2017-06-30T01:47:58.681Z,994.77
2017-06-30T01:48:58.661Z,994.8
2017-06-30T01:49:58.641Z,994.79
2017-06-30T01:50:58.618Z,994.81
2017-06-30T01:51:58.599Z,994.79
2017-06-30T01:52:58.581Z,994.8
2017-06-30T01:53:58.555Z,994.81
2017-06-30T01:54:58.585Z,994.77
2017-06-30T01:55:58.516Z,994.79
2017-06-30T01:56:58.497Z,994.78
2017-06-30T01:57:58.525Z,994.78
2017-06-30T01:58:58.454Z,994.76
2017-06-30T01:59:58.431Z,994.74
2017-06-30T02:00:58.414Z,994.76
2017-06-30T02:01:58.392Z,994.78
2017-06-30T02:02:58.371Z,994.73
2017-06-30T02:03:58.349Z,994.77
2017-06-30T02:04:58.329Z,994.78
2017-06-30T02:05:58.314Z,994.86
2017-06-30T02:06:58.288Z,994.84
2017-06-30T02:07:58.269Z,994.87
2017-06-30T02:08:58.243Z,994.84
2017-06-30T02:09:58.225Z,994.82
2017-06-30T02:10:58.205Z,994.83
2017-06-30T02:11:58.186Z,994.85
2017-06-30T02:12:58.164Z,994.86
2017-06-30T02:13:58.144Z,994.91
2017-06-30T02:14:58.121Z,994.91
2017-06-30T02:15:58.102Z,994.9
2017-06-30T02:16:58.081Z,994.87
2017-06-30T02:17:58.061Z,994.84
2017-06-30T02:18:58.043Z,994.85
2017-06-30T02:19:58.019Z,994.82
2017-06-30T02:20:57.999Z,994.91
2017-06-30T02:21:57.982Z,994.9
2017-06-30T02:22:57.958Z,994.92
2017-06-30T02:23:57.936Z,994.92
2017-06-30T02:24:57.914Z,994.92
2017-06-30T02:25:57.897Z,994.96
2017-06-30T02:26:57.921Z,994.93
2017-06-30T02:27:57.855Z,994.94
2017-06-30T02:28:57.832Z,994.93
2017-06-30T02:29:57.813Z,994.97
2017-06-30T02:30:57.792Z,994.95
2017-06-30T02:31:57.772Z,994.97
2017-06-30T02:32:57.748Z,994.97
2017-06-30T02:33:57.730Z,995.02
2017-06-30T02:34:57.711Z,995
2017-06-30T02:35:57.688Z,995.02
2017-06-30T02:36:57.668Z,995.01
2017-06-30T02:37:57.647Z,995
2017-06-30T02:38:57.627Z,994.99
2017-06-30T02:39:57.605Z,994.95
2017-06-30T02:40:57.584Z,994.95
2017-06-30T02:41:57.564Z,995.08
2017-06-30T02:42:57.543Z,995.02
2017-06-30T02:43:57.521Z,995.02
2017-06-30T02:44:57.501Z,995.04
2017-06-30T02:45:57.483Z,995.04
2017-06-30T02:46:57.460Z,995.06
2017-06-30T02:47:57.438Z,995.03
2017-06-30T02:48:57.418Z,995.1
2017-06-30T02:49:57.396Z,995.1
2017-06-30T02:50:57.377Z,995.06
2017-06-30T02:51:57.356Z,995.09
2017-06-30T02:52:57.336Z,995.09
2017-06-30T02:53:57.312Z,995.13
2017-06-30T02:54:57.292Z,995.14
2017-06-30T02:55:57.272Z,995.17
2017-06-30T02:56:57.254Z,995.13
2017-06-30T02:57:57.235Z,995.18
2017-06-30T02:58:57.208Z,995.17
2017-06-30T02:59:57.188Z,995.17
2017-06-30T03:00:57.169Z,995.25
2017-06-30T03:01:57.148Z,995.2
2017-06-30T03:02:57.126Z,995.21
2017-06-30T03:03:57.107Z,995.22
2017-06-30T03:04:57.085Z,995.22
2017-06-30T03:05:57.065Z,995.24
2017-06-30T03:06:57.052Z,995.18
2017-06-30T03:07:57.022Z,995.23
2017-06-30T03:08:57.002Z,995.28
2017-06-30T03:09:56.982Z,995.24
2017-06-30T03:10:56.965Z,995.24
2017-06-30T03:11:56.940Z,995.23
2017-06-30T03:12:56.920Z,995.27
2017-06-30T03:13:56.899Z,995.25
2017-06-30T03:14:56.878Z,995.25
2017-06-30T03:15:56.857Z,995.25
2017-06-30T03:16:56.836Z,995.22
2017-06-30T03:17:56.816Z,995.23
2017-06-30T03:18:56.795Z,995.23
2017-06-30T03:19:56.775Z,995.28
2017-06-30T03:20:56.754Z,995.28
2017-06-30T03:21:56.734Z,995.3
2017-06-30T03:22:56.720Z,995.31
2017-06-30T03:23:56.691Z,995.28
2017-06-30T03:24:56.671Z,995.29
2017-06-30T03:25:56.650Z,995.28
2017-06-30T03:26:56.636Z,995.25
2017-06-30T03:27:56.608Z,995.27
2017-06-30T03:28:56.587Z,995.27
2017-06-30T03:29:56.571Z,995.27
2017-06-30T03:30:56.548Z,995.28
2017-06-30T03:31:56.525Z,995.26
2017-06-30T03:32:56.554Z,995.26
2017-06-30T03:33:56.483Z,995.24
2017-06-30T03:34:56.463Z,995.26
2017-06-30T03:35:56.441Z,995.23
2017-06-30T03:36:56.421Z,995.27
2017-06-30T03:37:56.402Z,995.28
2017-06-30T03:38:56.381Z,995.29
2017-06-30T03:39:56.407Z,995.28
2017-06-30T03:40:56.339Z,995.27
2017-06-30T03:41:56.317Z,995.3
2017-06-30T03:42:56.296Z,995.32
2017-06-30T03:43:56.274Z,995.28
2017-06-30T03:44:56.256Z,995.34
2017-06-30T03:45:56.234Z,995.33
2017-06-30T03:46:56.211Z,995.33
2017-06-30T03:47:56.192Z,995.34
2017-06-30T03:48:56.170Z,995.31
2017-06-30T03:49:56.151Z,995.34
2017-06-30T03:50:56.130Z,995.36
2017-06-30T03:51:56.107Z,995.42
2017-06-30T03:52:56.089Z,995.45
2017-06-30T03:53:56.067Z,995.42
2017-06-30T03:54:56.048Z,995.37
2017-06-30T03:55:56.026Z,995.38
2017-06-30T03:56:56.006Z,995.41
2017-06-30T03:57:55.986Z,995.39
2017-06-30T03:58:55.962Z,995.43
2017-06-30T03:59:55.948Z,995.43
2017-06-30T04:00:55.920Z,995.39
2017-06-30T04:01:55.904Z,995.43
2017-06-30T04:02:55.882Z,995.48
2017-06-30T04:03:55.862Z,995.53
2017-06-30T04:04:55.889Z,995.48
2017-06-30T04:05:55.818Z,995.47
2017-06-30T04:06:55.803Z,995.44
2017-06-30T04:07:55.777Z,995.49
2017-06-30T04:08:55.760Z,995.51
2017-06-30T04:09:55.736Z,995.53
2017-06-30T04:10:55.716Z,995.5
2017-06-30T04:11:55.694Z,995.56
2017-06-30T04:12:55.677Z,995.59
2017-06-30T04:13:55.653Z,995.52
2017-06-30T04:14:55.632Z,995.51
2017-06-30T04:15:55.615Z,995.51
2017-06-30T04:16:55.592Z,995.5
2017-06-30T04:17:55.619Z,995.49
2017-06-30T04:18:55.550Z,995.52
2017-06-30T04:19:55.529Z,995.48
2017-06-30T04:20:55.508Z,995.48
2017-06-30T04:21:55.489Z,995.5
2017-06-30T04:22:55.467Z,995.54
2017-06-30T04:23:55.446Z,995.51
2017-06-30T04:24:55.426Z,995.52
2017-06-30T04:25:55.405Z,995.51
2017-06-30T04:26:55.386Z,995.53
2017-06-30T04:27:55.363Z,995.54
2017-06-30T04:28:55.344Z,995.53
2017-06-30T04:29:55.323Z,995.54
2017-06-30T04:30:55.304Z,995.52
2017-06-30T04:31:55.282Z,995.51
2017-06-30T04:32:55.262Z,995.57
2017-06-30T04:33:55.242Z,995.54
2017-06-30T04:34:55.221Z,995.57
2017-06-30T04:35:55.199Z,995.57
2017-06-30T04:36:55.180Z,995.53
2017-06-30T04:37:55.159Z,995.6
2017-06-30T04:38:55.138Z,995.6
2017-06-30T04:39:55.118Z,995.65
2017-06-30T04:40:55.097Z,995.69
2017-06-30T04:41:55.078Z,995.65
2017-06-30T04:42:55.057Z,995.7
2017-06-30T04:43:55.034Z,995.64
2017-06-30T04:44:55.017Z,995.68
2017-06-30T04:45:54.996Z,995.66
2017-06-30T04:46:54.974Z,995.67
2017-06-30T04:47:54.955Z,995.7
2017-06-30T04:48:54.935Z,995.74
2017-06-30T04:49:54.912Z,995.78
2017-06-30T04:50:54.893Z,995.78
2017-06-30T04:51:54.874Z,995.82
2017-06-30T04:52:54.854Z,995.8
2017-06-30T04:53:54.832Z,995.77
2017-06-30T04:54:54.811Z,995.82
2017-06-30T04:55:54.793Z,995.84
2017-06-30T04:56:54.770Z,995.8
2017-06-30T04:57:54.755Z,995.82
2017-06-30T04:58:54.731Z,995.76
2017-06-30T04:59:54.711Z,995.76
2017-06-30T05:00:54.691Z,995.79
2017-06-30T05:01:54.670Z,995.78
2017-06-30T05:02:54.650Z,995.82
2017-06-30T05:03:54.629Z,995.82
2017-06-30T05:04:54.613Z,995.85
2017-06-30T05:05:54.589Z,995.87
2017-06-30T05:06:54.572Z,995.84
2017-06-30T05:07:54.548Z,995.83
2017-06-30T05:08:54.529Z,995.82
2017-06-30T05:09:54.508Z,995.86
2017-06-30T05:10:54.489Z,995.88
2017-06-30T05:11:54.468Z,995.86
2017-06-30T05:12:54.448Z,995.91
2017-06-30T05:13:54.430Z,995.95
2017-06-30T05:14:54.406Z,995.92
2017-06-30T05:15:54.387Z,995.9
2017-06-30T05:16:54.366Z,995.85
2017-06-30T05:17:54.348Z,995.9
2017-06-30T05:18:54.329Z,995.9
2017-06-30T05:19:54.306Z,995.89
2017-06-30T05:20:54.288Z,995.88
2017-06-30T05:21:54.266Z,995.89
2017-06-30T05:22:54.248Z,995.91
2017-06-30T05:23:54.227Z,995.86
2017-06-30T05:24:54.208Z,995.94
2017-06-30T05:25:54.186Z,995.94
2017-06-30T05:26:54.167Z,995.94
2017-06-30T05:27:54.160Z,995.91
2017-06-30T05:28:54.128Z,995.97
2017-06-30T05:29:54.108Z,995.96
2017-06-30T05:30:54.088Z,996.01
2017-06-30T05:31:54.070Z,995.97
2017-06-30T05:32:54.048Z,996.01
2017-06-30T05:33:54.029Z,996.01
2017-06-30T05:34:54.008Z,996.04
2017-06-30T05:35:53.995Z,996.06
2017-06-30T05:36:53.974Z,995.99
2017-06-30T05:37:53.952Z,996.08
2017-06-30T05:38:53.935Z,996.01
2017-06-30T05:39:53.913Z,996.02
2017-06-30T05:40:53.890Z,996.03
2017-06-30T05:41:53.872Z,996.04
2017-06-30T05:42:53.852Z,996.06
2017-06-30T05:43:53.833Z,996.04
2017-06-30T05:44:53.810Z,996.08
2017-06-30T05:45:53.791Z,996.07
2017-06-30T05:46:53.776Z,996.08
2017-06-30T05:47:53.752Z,996.1
2017-06-30T05:48:53.735Z,996.16
2017-06-30T05:49:53.715Z,996.12
2017-06-30T05:50:53.697Z,996.21
2017-06-30T05:51:53.679Z,996.13
2017-06-30T05:52:53.658Z,996.18
2017-06-30T05:53:53.638Z,996.16
2017-06-30T05:54:53.619Z,996.21
2017-06-30T05:55:53.601Z,996.21
2017-06-30T05:56:53.585Z,996.21
2017-06-30T05:57:53.562Z,996.21
2017-06-30T05:58:53.540Z,996.21
2017-06-30T05:59:53.523Z,996.27
2017-06-30T06:00:53.504Z,996.29
2017-06-30T06:01:53.535Z,996.31
2017-06-30T06:02:53.467Z,996.27
2017-06-30T06:03:53.446Z,996.36
2017-06-30T06:04:53.429Z,996.33
2017-06-30T06:05:53.410Z,996.34
2017-06-30T06:06:53.391Z,996.33
2017-06-30T06:07:53.376Z,996.34
2017-06-30T06:08:53.353Z,996.33
2017-06-30T06:09:53.335Z,996.43
2017-06-30T06:10:53.316Z,996.43
2017-06-30T06:11:53.298Z,996.45
2017-06-30T06:12:53.329Z,996.48
2017-06-30T06:13:53.261Z,996.42
2017-06-30T06:14:53.241Z,996.43
2017-06-30T06:15:53.275Z,996.45
2017-06-30T06:16:53.201Z,996.43
2017-06-30T06:17:53.188Z,996.45
2017-06-30T06:18:53.168Z,996.41
2017-06-30T06:19:53.157Z,996.42
2017-06-30T06:20:53.184Z,996.44
2017-06-30T06:21:53.115Z,996.43
2017-06-30T06:22:53.095Z,996.41
2017-06-30T06:23:53.077Z,996.41
2017-06-30T06:24:53.061Z,996.42
2017-06-30T06:25:53.040Z,996.46
2017-06-30T06:26:53.023Z,996.47
2017-06-30T06:27:53.005Z,996.43
2017-06-30T06:28:52.989Z,996.47
2017-06-30T06:29:52.969Z,996.45
2017-06-30T06:30:52.956Z,996.45
2017-06-30T06:31:52.933Z,996.44
2017-06-30T06:32:52.915Z,996.41
2017-06-30T06:33:52.897Z,996.4
2017-06-30T06:34:52.879Z,996.4
2017-06-30T06:35:52.859Z,996.41
2017-06-30T06:36:52.879Z,996.45
2017-06-30T06:37:52.825Z,996.48
2017-06-30T06:38:52.807Z,996.5
2017-06-30T06:39:52.786Z,996.5
2017-06-30T06:40:52.775Z,996.46
2017-06-30T06:41:52.752Z,996.51
2017-06-30T06:42:52.733Z,996.54
2017-06-30T06:43:52.718Z,996.54
2017-06-30T06:44:52.701Z,996.52
2017-06-30T06:45:52.686Z,996.61
2017-06-30T06:46:52.660Z,996.54
2017-06-30T06:47:52.646Z,996.54
2017-06-30T06:48:52.628Z,996.58
2017-06-30T06:49:52.606Z,996.6
2017-06-30T06:50:52.589Z,996.57
2017-06-30T06:51:52.573Z,996.61
2017-06-30T06:52:52.606Z,996.65
2017-06-30T06:53:52.535Z,996.66
2017-06-30T06:54:52.518Z,996.64
2017-06-30T06:55:52.508Z,996.66
2017-06-30T06:56:52.483Z,996.68
2017-06-30T06:57:52.465Z,996.66
2017-06-30T06:58:52.449Z,996.64
2017-06-30T06:59:52.429Z,996.69
2017-06-30T07:00:52.414Z,996.67
2017-06-30T07:01:52.395Z,996.64
2017-06-30T07:02:52.379Z,996.7
2017-06-30T07:03:52.360Z,996.7
2017-06-30T07:04:52.390Z,996.82
2017-06-30T07:05:52.322Z,996.7
2017-06-30T07:06:52.316Z,996.76
2017-06-30T07:07:52.289Z,996.76
2017-06-30T07:08:52.274Z,996.75
2017-06-30T07:09:52.253Z,996.79
2017-06-30T07:10:52.236Z,996.75
2017-06-30T07:11:52.219Z,996.78
2017-06-30T07:12:52.200Z,996.81
2017-06-30T07:13:52.186Z,996.78
2017-06-30T07:14:52.164Z,996.77
2017-06-30T07:15:52.146Z,996.8
2017-06-30T07:16:52.128Z,996.82
2017-06-30T07:17:52.112Z,996.74
2017-06-30T07:18:52.093Z,996.81
2017-06-30T07:19:52.075Z,996.87
2017-06-30T07:20:52.053Z,996.79
2017-06-30T07:21:52.038Z,996.86
2017-06-30T07:22:52.021Z,996.82
2017-06-30T07:23:52.001Z,996.86
2017-06-30T07:24:51.985Z,996.84
2017-06-30T07:25:51.967Z,996.83
2017-06-30T07:26:51.946Z,996.75
2017-06-30T07:27:51.930Z,996.84
2017-06-30T07:28:51.910Z,996.82
2017-06-30T07:29:51.893Z,996.83
2017-06-30T07:30:51.877Z,996.86
2017-06-30T07:31:51.857Z,996.9
2017-06-30T07:32:51.839Z,996.87
2017-06-30T07:33:51.818Z,996.91
2017-06-30T07:34:51.851Z,996.88
2017-06-30T07:35:51.783Z,996.89
2017-06-30T07:36:51.764Z,996.93
2017-06-30T07:37:51.745Z,996.92
2017-06-30T07:38:51.726Z,996.93
2017-06-30T07:39:51.709Z,996.92
2017-06-30T07:40:51.690Z,996.92
2017-06-30T07:41:51.672Z,996.94
2017-06-30T07:42:51.654Z,997.02
2017-06-30T07:43:51.635Z,996.98
2017-06-30T07:44:51.616Z,996.96
2017-06-30T07:45:51.697Z,996.98
2017-06-30T07:46:51.580Z,996.98
2017-06-30T07:47:51.562Z,996.95
2017-06-30T07:48:51.544Z,996.96
2017-06-30T07:49:51.522Z,996.96
2017-06-30T07:50:51.503Z,997.02
2017-06-30T07:51:51.486Z,996.95
2017-06-30T07:52:51.516Z,996.96
2017-06-30T07:53:51.447Z,996.98
2017-06-30T07:54:51.432Z,996.98
2017-06-30T07:55:51.409Z,996.97
2017-06-30T07:56:51.391Z,997
2017-06-30T07:57:51.372Z,996.98
2017-06-30T07:58:51.403Z,996.98
2017-06-30T07:59:51.334Z,997.02
2017-06-30T08:00:51.314Z,996.99
2017-06-30T08:01:51.295Z,996.97
2017-06-30T08:02:51.278Z,996.99
2017-06-30T08:03:51.253Z,997.03
2017-06-30T08:04:51.237Z,997.07
2017-06-30T08:05:51.225Z,997.03
2017-06-30T08:06:51.200Z,997.03
2017-06-30T08:07:51.179Z,997.06
2017-06-30T08:08:51.163Z,997.07
2017-06-30T08:09:51.141Z,997.1
2017-06-30T08:10:51.322Z,997.11
2017-06-30T08:11:51.103Z,997.1
2017-06-30T08:12:51.084Z,997.08
2017-06-30T08:13:51.068Z,997.12
2017-06-30T08:14:51.043Z,997.1
2017-06-30T08:15:51.025Z,997.05
2017-06-30T08:16:51.007Z,997.1
2017-06-30T08:17:50.984Z,997.05
2017-06-30T08:18:50.963Z,997.07
2017-06-30T08:19:50.947Z,997.07
2017-06-30T08:20:50.976Z,997.04
2017-06-30T08:21:50.907Z,997.04
2017-06-30T08:22:50.886Z,997.05
2017-06-30T08:23:50.871Z,997.07
2017-06-30T08:24:50.848Z,997.15
2017-06-30T08:25:50.840Z,997.09
2017-06-30T08:26:50.809Z,997.12
2017-06-30T08:27:50.788Z,997.13
2017-06-30T08:28:50.770Z,997.15
2017-06-30T08:29:50.752Z,997.13
2017-06-30T08:30:50.730Z,997.17
2017-06-30T08:31:50.713Z,997.16
2017-06-30T08:32:50.692Z,997.07
2017-06-30T08:33:50.672Z,997.08
2017-06-30T08:34:50.651Z,997.06
2017-06-30T08:35:50.631Z,997.07
2017-06-30T08:36:50.614Z,997.03
2017-06-30T08:37:50.593Z,997.02
2017-06-30T08:38:50.577Z,996.99
2017-06-30T08:39:50.558Z,997.05
2017-06-30T08:40:50.542Z,996.99
2017-06-30T08:41:50.522Z,997.02
2017-06-30T08:42:50.497Z,997.01
2017-06-30T08:43:50.479Z,997.01
2017-06-30T08:44:50.461Z,996.97
2017-06-30T08:45:50.444Z,996.94
2017-06-30T08:46:50.425Z,996.97
2017-06-30T08:47:50.404Z,997.02
2017-06-30T08:48:50.388Z,996.98
2017-06-30T08:49:50.371Z,997.03
2017-06-30T08:50:50.350Z,996.96
2017-06-30T08:51:50.334Z,996.95
2017-06-30T08:52:50.313Z,996.96
2017-06-30T08:53:50.299Z,996.98
2017-06-30T08:54:50.281Z,996.96
2017-06-30T08:55:50.260Z,997.01
2017-06-30T08:56:50.245Z,997.02
2017-06-30T08:57:50.231Z,997.01
2017-06-30T08:58:50.209Z,996.98
2017-06-30T08:59:50.198Z,996.96
2017-06-30T09:00:50.174Z,996.99
2017-06-30T09:01:50.158Z,997
2017-06-30T09:02:50.191Z,996.96
2017-06-30T09:03:50.276Z,996.97
2017-06-30T09:04:50.108Z,997.01
2017-06-30T09:05:50.096Z,997.06
2017-06-30T09:06:50.176Z,997.01
2017-06-30T09:07:50.062Z,996.97
2017-06-30T09:08:50.046Z,996.98
2017-06-30T09:09:50.031Z,997.04
2017-06-30T09:10:50.011Z,996.99
2017-06-30T09:11:50.001Z,997.06
2017-06-30T09:12:49.979Z,997.01
2017-06-30T09:13:49.963Z,997.01
2017-06-30T09:14:49.948Z,996.97
2017-06-30T09:15:49.933Z,996.95
2017-06-30T09:16:49.966Z,996.99
2017-06-30T09:17:49.903Z,996.92
2017-06-30T09:18:49.888Z,996.98
2017-06-30T09:19:49.870Z,997
2017-06-30T09:20:49.863Z,996.99
2017-06-30T09:21:49.840Z,997.02
2017-06-30T09:22:49.824Z,997
2017-06-30T09:23:49.807Z,997.01
2017-06-30T09:24:49.795Z,996.99
2017-06-30T09:25:49.777Z,997.02
2017-06-30T09:26:49.764Z,997.01
2017-06-30T09:27:49.746Z,997.04
2017-06-30T09:28:49.735Z,997.03
2017-06-30T09:29:49.718Z,997.06
2017-06-30T09:30:49.702Z,997.07
2017-06-30T09:31:49.686Z,997.1
2017-06-30T09:32:49.681Z,997.06
2017-06-30T09:33:49.655Z,997.09
2017-06-30T09:34:49.640Z,997.09
2017-06-30T09:35:49.625Z,997.1
2017-06-30T09:36:49.612Z,997.17
2017-06-30T09:37:49.594Z,997.1
2017-06-30T09:38:49.577Z,997.12
2017-06-30T09:39:49.567Z,997.11
2017-06-30T09:40:49.549Z,997.18
2017-06-30T09:41:49.534Z,997.11
2017-06-30T09:42:49.519Z,997.2
2017-06-30T09:43:49.503Z,997.14
2017-06-30T09:44:49.487Z,997.12
2017-06-30T09:45:49.471Z,997.21
2017-06-30T09:46:49.457Z,997.18
2017-06-30T09:47:49.442Z,997.12
2017-06-30T09:48:49.426Z,997.14
2017-06-30T09:49:49.409Z,997.12
2017-06-30T09:50:49.394Z,997.07
2017-06-30T09:51:49.378Z,997.14
2017-06-30T09:52:49.369Z,997.11
2017-06-30T09:53:49.353Z,997.21
2017-06-30T09:54:49.331Z,997.09
2017-06-30T09:55:49.321Z,997.14
2017-06-30T09:56:49.301Z,997.15
2017-06-30T09:57:49.286Z,997.19
2017-06-30T09:58:49.271Z,997.16
2017-06-30T09:59:49.254Z,997.2
2017-06-30T10:00:49.241Z,997.18
2017-06-30T10:01:49.226Z,997.12
2017-06-30T10:02:49.210Z,997.17
2017-06-30T10:03:49.197Z,997.16
2017-06-30T10:04:49.177Z,997.17
2017-06-30T10:05:49.166Z,997.2
2017-06-30T10:06:49.148Z,997.24
2017-06-30T10:07:49.130Z,997.31
2017-06-30T10:08:49.117Z,997.22
2017-06-30T10:09:49.112Z,997.24
2017-06-30T10:10:49.088Z,997.29
2017-06-30T10:11:49.071Z,997.33
2017-06-30T10:12:49.058Z,997.27
2017-06-30T10:13:49.044Z,997.32
2017-06-30T10:14:49.030Z,997.26
2017-06-30T10:15:49.018Z,997.32
2017-06-30T10:16:48.999Z,997.32
2017-06-30T10:17:48.984Z,997.26
2017-06-30T10:18:49.269Z,997.28
2017-06-30T10:19:48.954Z,997.27
2017-06-30T10:20:48.949Z,997.32
2017-06-30T10:21:48.926Z,997.31
2017-06-30T10:22:48.913Z,997.34
2017-06-30T10:23:48.906Z,997.32
2017-06-30T10:24:48.886Z,997.32
2017-06-30T10:25:48.872Z,997.3
2017-06-30T10:26:48.865Z,997.3
2017-06-30T10:27:48.848Z,997.33
2017-06-30T10:28:48.835Z,997.33
2017-06-30T10:29:48.822Z,997.37
2017-06-30T10:30:48.808Z,997.37
2017-06-30T10:31:48.794Z,997.42
2017-06-30T10:32:48.781Z,997.34
2017-06-30T10:33:48.768Z,997.34
2017-06-30T10:34:48.756Z,997.36
2017-06-30T10:35:48.898Z,997.36
2017-06-30T10:36:48.730Z,997.32
2017-06-30T10:37:48.718Z,997.38
2017-06-30T10:38:48.704Z,997.36
2017-06-30T10:39:48.743Z,997.37
2017-06-30T10:40:48.676Z,997.36
2017-06-30T10:41:48.665Z,997.33
2017-06-30T10:42:48.655Z,997.36
2017-06-30T10:43:48.644Z,997.4
2017-06-30T10:44:48.623Z,997.42
2017-06-30T10:45:48.614Z,997.44
2017-06-30T10:46:48.597Z,997.4
2017-06-30T10:47:48.585Z,997.45
2017-06-30T10:48:48.570Z,997.36
2017-06-30T10:49:48.557Z,997.36
2017-06-30T10:50:48.542Z,997.43
2017-06-30T10:51:48.628Z,997.44
2017-06-30T10:52:48.515Z,997.5
2017-06-30T10:53:48.503Z,997.49
2017-06-30T10:54:48.488Z,997.52
2017-06-30T10:55:48.471Z,997.53
2017-06-30T10:56:48.456Z,997.48
2017-06-30T10:57:48.441Z,997.51
2017-06-30T10:58:48.429Z,997.48
2017-06-30T10:59:48.411Z,997.47
2017-06-30T11:00:48.395Z,997.51
2017-06-30T11:01:48.378Z,997.52
2017-06-30T11:02:48.365Z,997.49
2017-06-30T11:03:48.348Z,997.45
2017-06-30T11:04:48.432Z,997.5
2017-06-30T11:05:48.316Z,997.5
2017-06-30T11:06:48.303Z,997.48
2017-06-30T11:07:48.285Z,997.47
2017-06-30T11:08:48.269Z,997.41
2017-06-30T11:09:48.251Z,997.45
2017-06-30T11:10:48.236Z,997.43
2017-06-30T11:11:48.221Z,997.45
2017-06-30T11:12:48.204Z,997.43
2017-06-30T11:13:48.188Z,997.45
2017-06-30T11:14:48.172Z,997.47
2017-06-30T11:15:48.156Z,997.47
2017-06-30T11:16:48.136Z,997.51
2017-06-30T11:17:48.120Z,997.47
2017-06-30T11:18:48.104Z,997.42
2017-06-30T11:19:48.088Z,997.42
2017-06-30T11:20:48.071Z,997.47
2017-06-30T11:21:48.052Z,997.47
2017-06-30T11:22:48.044Z,997.47
2017-06-30T11:23:48.023Z,997.42
2017-06-30T11:24:48.005Z,997.4
2017-06-30T11:25:47.989Z,997.42
2017-06-30T11:26:48.024Z,997.45
2017-06-30T11:27:47.959Z,997.45
2017-06-30T11:28:47.938Z,997.41
2017-06-30T11:29:47.922Z,997.4
2017-06-30T11:30:47.909Z,997.37
2017-06-30T11:31:47.890Z,997.42
2017-06-30T11:32:47.874Z,997.38
2017-06-30T11:33:47.861Z,997.39
2017-06-30T11:34:47.843Z,997.36
2017-06-30T11:35:47.827Z,997.36
2017-06-30T11:36:47.860Z,997.37
2017-06-30T11:37:47.795Z,997.35
2017-06-30T11:38:47.779Z,997.31
2017-06-30T11:39:47.764Z,997.37
2017-06-30T11:40:47.748Z,997.34
2017-06-30T11:41:47.734Z,997.34
2017-06-30T11:42:47.718Z,997.34
2017-06-30T11:43:47.703Z,997.33
2017-06-30T11:44:47.686Z,997.32
2017-06-30T11:45:47.674Z,997.26
2017-06-30T11:46:47.657Z,997.32
2017-06-30T11:47:47.644Z,997.3
2017-06-30T11:48:47.628Z,997.34
2017-06-30T11:49:47.610Z,997.36
2017-06-30T11:50:47.596Z,997.34
2017-06-30T11:51:47.581Z,997.32
2017-06-30T11:52:47.564Z,997.27
2017-06-30T11:53:47.549Z,997.31
2017-06-30T11:54:47.535Z,997.19
2017-06-30T11:55:47.525Z,997.3
2017-06-30T11:56:47.503Z,997.28
2017-06-30T11:57:47.490Z,997.31
2017-06-30T11:58:47.476Z,997.27
2017-06-30T11:59:47.460Z,997.37
2017-06-30T12:00:47.447Z,997.29
2017-06-30T12:01:47.429Z,997.3
2017-06-30T12:02:47.414Z,997.29
2017-06-30T12:03:47.401Z,997.26
2017-06-30T12:04:47.383Z,997.31
2017-06-30T12:05:47.421Z,997.26
2017-06-30T12:06:47.355Z,997.31
2017-06-30T12:07:47.340Z,997.33
2017-06-30T12:08:47.324Z,997.33
2017-06-30T12:09:47.308Z,997.33
2017-06-30T12:10:47.305Z,997.32
2017-06-30T12:11:47.281Z,997.3
2017-06-30T12:12:47.264Z,997.35
2017-06-30T12:13:47.255Z,997.33
2017-06-30T12:14:47.234Z,997.32
2017-06-30T12:15:47.216Z,997.39
2017-06-30T12:16:47.203Z,997.45
2017-06-30T12:17:47.187Z,997.41
2017-06-30T12:18:47.169Z,997.42
2017-06-30T12:19:47.157Z,997.34
2017-06-30T12:20:47.140Z,997.31
2017-06-30T12:21:47.126Z,997.31
2017-06-30T12:22:47.110Z,997.27
2017-06-30T12:23:47.095Z,997.27
2017-06-30T12:24:47.080Z,997.25
2017-06-30T12:25:47.066Z,997.32
2017-06-30T12:26:47.051Z,997.31
2017-06-30T12:27:47.037Z,997.26
2017-06-30T12:28:47.019Z,997.3
2017-06-30T12:29:47.005Z,997.27
2017-06-30T12:30:46.990Z,997.31